createdAt,value
2023-05-02T02:42:43.314Z,78749.00
2023-05-02T02:45:19.030Z,78762.00
2023-05-02T02:47:51.350Z,78784.91
2023-05-02T02:50:54.710Z,78771.13
2023-05-02T03:05:56.419Z,78782.34
2023-05-02T03:08:26.514Z,78768.84
2023-05-02T03:10:56.186Z,78782.84
2023-05-02T03:13:25.314Z,78760.00
2023-05-02T03:15:54.896Z,78795.34
2023-05-02T03:18:30.205Z,78784.97
2023-05-02T03:20:59.602Z,78793.69
2023-05-02T03:23:28.765Z,78787.06
2023-05-02T03:25:57.834Z,78765.59
2023-05-02T03:28:28.825Z,78772.50
2023-05-02T03:30:58.888Z,78789.44
2023-05-02T03:57:40.819Z,78804.03
2023-05-02T04:00:13.801Z,78807.47
2023-05-02T04:28:34.180Z,78828.91
2023-05-02T04:45:34.023Z,78842.88
2023-05-02T04:48:03.886Z,78857.06
2023-05-02T05:00:23.044Z,78847.06
2023-05-02T06:04:37.900Z,78855.66
2023-05-02T06:07:06.793Z,78832.47
2023-05-02T06:09:35.557Z,78825.81
2023-05-02T06:25:01.837Z,78847.66
2023-05-02T06:27:32.953Z,78848.84
2023-05-02T06:44:35.991Z,78844.84
2023-05-02T06:58:59.138Z,78833.00
2023-05-02T07:01:28.169Z,78852.03
2023-05-02T07:10:26.129Z,78819.69
2023-05-02T07:12:55.552Z,78848.94
2023-05-02T07:15:24.637Z,78813.75
2023-05-02T07:17:53.579Z,78841.34
2023-05-02T07:20:22.682Z,78820.41
2023-05-02T07:22:52.227Z,78812.88
2023-05-02T07:34:31.329Z,78821.78
2023-05-02T07:37:03.547Z,78801.84
2023-05-02T07:39:34.848Z,78819.19
2023-05-02T07:42:04.714Z,78806.66
2023-05-02T07:44:37.988Z,78797.56
2023-05-02T07:47:07.444Z,78800.56
2023-05-02T07:49:37.833Z,78809.69
2023-05-02T07:52:07.047Z,78810.44
2023-05-02T07:54:36.889Z,78806.84
2023-05-02T07:57:09.175Z,78775.56
2023-05-02T07:59:38.054Z,78793.47
2023-05-02T08:02:07.351Z,78732.28
2023-05-02T08:04:36.505Z,78792.16
2023-05-02T08:07:05.467Z,78793.53
2023-05-02T08:09:34.781Z,78789.41
2023-05-02T08:12:04.220Z,78780.59
2023-05-02T08:14:33.310Z,78769.16
2023-05-02T08:17:02.641Z,78778.31
2023-05-02T08:19:31.549Z,78775.91
2023-05-02T08:22:00.671Z,78757.88
2023-05-02T08:24:29.585Z,78761.31
2023-05-02T08:26:59.031Z,78749.19
2023-05-02T08:29:27.841Z,78747.81
2023-05-02T08:31:57.113Z,78746.63
2023-05-02T08:34:26.914Z,78758.94
2023-05-02T08:36:58.266Z,78743.56
2023-05-02T08:39:27.441Z,78750.97
2023-05-02T08:41:56.659Z,78736.34
2023-05-02T08:44:25.555Z,78685.31
2023-05-02T08:46:55.667Z,78749.75
2023-05-02T08:49:26.990Z,78724.84
2023-05-02T08:51:58.339Z,78719.50
2023-05-02T08:54:28.213Z,78723.56
2023-05-02T08:57:00.628Z,78737.69
2023-05-02T08:59:29.574Z,78729.66
2023-05-02T09:02:14.395Z,78734.38
2023-05-02T09:04:44.659Z,78729.59
2023-05-02T09:07:13.730Z,78729.28
2023-05-02T09:09:42.602Z,78730.03
2023-05-02T09:12:11.563Z,78726.81
2023-05-02T09:14:46.056Z,78712.28
2023-05-02T09:17:17.529Z,78719.56
2023-05-02T09:19:47.139Z,78731.78
2023-05-02T09:22:24.883Z,78724.03
2023-05-02T09:25:00.272Z,78721.00
2023-05-02T09:27:29.919Z,78701.38
2023-05-02T09:30:35.304Z,78716.59
2023-05-02T09:33:10.105Z,78689.88
2023-05-02T09:35:56.741Z,78693.81
2023-05-02T09:38:26.631Z,78702.16
2023-05-02T09:40:58.584Z,78707.53
2023-05-02T09:43:31.513Z,78688.81
2023-05-02T09:46:09.501Z,78704.34
2023-05-02T09:51:41.055Z,78705.06
2023-05-02T09:54:11.341Z,78632.88
2023-05-02T09:56:58.275Z,78695.97
2023-05-02T09:59:29.613Z,78669.34
2023-05-02T10:02:10.552Z,78668.56
2023-05-02T10:04:40.840Z,78697.44
2023-05-02T10:07:11.724Z,78687.31
2023-05-02T10:09:46.569Z,78692.22
2023-05-02T10:12:22.314Z,78671.16
2023-05-02T10:15:02.781Z,78672.47
2023-05-02T10:17:36.914Z,78690.56
2023-05-02T10:20:07.945Z,78683.41
2023-05-02T10:22:37.914Z,78646.81
2023-05-02T10:25:08.005Z,78683.69
2023-05-02T10:27:38.681Z,78679.38
2023-05-02T10:30:09.353Z,78679.00
2023-05-02T10:32:39.393Z,78668.44
2023-05-02T10:35:09.410Z,78653.16
2023-05-02T10:37:41.743Z,78664.25
2023-05-02T10:40:14.569Z,78674.69
2023-05-02T10:42:50.660Z,78679.03
2023-05-02T10:45:37.009Z,78672.75
2023-05-02T10:48:20.366Z,78664.22
2023-05-02T10:50:52.370Z,78677.75
2023-05-02T10:53:33.362Z,78652.84
2023-05-02T10:56:16.387Z,78674.78
2023-05-02T10:58:47.573Z,78675.91
2023-05-02T11:01:39.508Z,78668.47
2023-05-02T11:06:59.770Z,78667.75
2023-05-02T11:09:28.903Z,78672.16
2023-05-02T11:11:58.470Z,78664.31
2023-05-02T11:14:30.729Z,78667.75
2023-05-02T11:17:02.586Z,78662.78
2023-05-02T11:19:59.781Z,78668.69
2023-05-02T11:22:35.501Z,78649.63
2023-05-02T11:25:06.418Z,78638.16
2023-05-02T11:27:39.190Z,78662.94
2023-05-02T11:30:10.164Z,78658.97
2023-05-02T11:32:51.896Z,78655.97
2023-05-02T11:35:23.771Z,78638.91
2023-05-02T11:38:08.313Z,78658.81
2023-05-02T11:40:37.252Z,78657.03
2023-05-02T11:43:17.818Z,78656.88
2023-05-02T11:45:47.267Z,78632.13
2023-05-02T11:48:20.987Z,78651.25
2023-05-02T11:50:57.287Z,78670.22
2023-05-02T11:53:30.284Z,78648.66
2023-05-02T11:56:02.657Z,78661.56
2023-05-02T11:58:36.136Z,78675.00
2023-05-02T12:25:35.031Z,78672.81
2023-05-02T12:28:04.801Z,78688.25
